Time;durP1;ratioP1;P1;durP2;ratioP2;P2;SDS_P1;SDS_P2;PMS_P1;PMS_P2;Temp;Humidity;BMP_temperature;BMP_pressure;BME280_temperature;BME280_humidity;BME280_pressure;Samples;Min_cycle;Max_cycle;Signal;HPM_P1;HPM_P2
2022/09/11 00:02:23;;;;;;;1.70;0.60;;;19.70;67.10;;;;;;2330095;54;20943;-74
2022/09/11 00:04:49;;;;;;;1.83;0.43;;;19.70;67.10;;;;;;2575195;52;20935;-73
2022/09/11 00:07:15;;;;;;;1.87;0.40;;;19.70;67.00;;;;;;2329038;54;21042;-73
2022/09/11 00:09:42;;;;;;;2.42;0.50;;;19.80;67.10;;;;;;2328911;54;21004;-76
2022/09/11 00:12:08;;;;;;;1.92;0.47;;;19.70;67.00;;;;;;2573094;52;21915;-74
2022/09/11 00:14:35;;;;;;;1.50;0.60;;;19.70;67.00;;;;;;2375369;52;20943;-76
2022/09/11 00:17:02;;;;;;;1.42;0.60;;;19.70;67.00;;;;;;2332437;52;21046;-73
2022/09/11 00:19:28;;;;;;;1.50;0.50;;;19.80;67.10;;;;;;2333392;54;20963;-74
2022/09/11 00:21:56;;;;;;;1.15;0.50;;;19.70;67.00;;;;;;2337866;53;20983;-76
2022/09/11 00:24:22;;;;;;;1.62;0.60;;;19.70;67.00;;;;;;2327008;53;21406;-77
2022/09/11 00:26:48;;;;;;;2.75;0.90;;;19.70;66.90;;;;;;2336480;54;21051;-76
2022/09/11 00:29:14;;;;;;;0.98;0.40;;;19.80;67.00;;;;;;2334702;54;21059;-75
2022/09/11 00:31:42;;;;;;;0.70;0.40;;;19.80;67.00;;;;;;2580791;52;21126;-73
2022/09/11 00:34:08;;;;;;;1.98;0.50;;;19.80;67.00;;;;;;2335125;54;20927;-74
2022/09/11 00:36:40;;;;;;;1.50;0.50;;;19.70;66.80;;;;;;2580341;52;20927;-73
2022/09/11 00:39:06;;;;;;;0.90;0.43;;;19.80;66.90;;;;;;2334330;54;21427;-73
2022/09/11 00:41:35;;;;;;;2.90;0.60;;;19.80;66.90;;;;;;2496415;52;20971;-73
2022/09/11 00:45:54;;;;;;;3.70;0.62;;;19.80;67.00;;;;;;2327654;54;21478;-73
2022/09/11 00:48:21;;;;;;;1.02;0.40;;;19.80;66.80;;;;;;2579546;52;20952;-76
2022/09/11 00:50:48;;;;;;;1.50;0.55;;;19.80;66.80;;;;;;2334158;54;20912;-78
2022/09/11 00:53:16;;;;;;;1.30;0.50;;;19.80;66.90;;;;;;2335339;54;20951;-73
2022/09/11 00:55:43;;;;;;;2.58;0.50;;;19.70;66.80;;;;;;2374920;53;20971;-73
2022/09/11 00:58:12;;;;;;;1.42;0.50;;;19.70;66.80;;;;;;2580574;52;21852;-75
2022/09/11 01:00:38;;;;;;;0.80;0.40;;;19.70;66.80;;;;;;2336003;54;20963;-74
2022/09/11 01:03:05;;;;;;;1.60;0.50;;;19.80;66.90;;;;;;2336318;53;20963;-74
2022/09/11 01:05:33;;;;;;;1.70;0.50;;;19.70;66.80;;;;;;2343670;53;23909;-74
2022/09/11 01:08:01;;;;;;;3.00;0.68;;;19.70;66.80;;;;;;2446945;52;20920;-75
2022/09/11 01:10:55;;;;;;;1.48;0.57;;;19.80;66.90;;;;;;2341074;54;20947;-73
2022/09/11 01:14:59;;;;;;;2.00;0.50;;;19.80;66.90;;;;;;2590488;52;20952;-74
2022/09/11 01:17:48;;;;;;;2.75;1.00;;;19.70;66.60;;;;;;2343896;54;20943;-74
2022/09/11 01:20:54;;;;;;;2.37;0.93;;;19.70;66.70;;;;;;2342109;54;20931;-73
2022/09/11 01:23:54;;;;;;;2.15;0.50;;;19.80;66.70;;;;;;2342792;54;21724;-74
2022/09/11 01:26:46;;;;;;;1.45;0.50;;;19.80;66.70;;;;;;2532446;52;20980;-73
2022/09/11 01:29:36;;;;;;;1.60;0.55;;;19.70;66.60;;;;;;2345049;54;20932;-75
2022/09/11 01:35:11;;;;;;;2.62;0.50;;;19.70;66.60;;;;;;2344399;54;21481;-78
2022/09/11 01:39:05;;;;;;;1.62;0.45;;;19.70;66.80;;;;;;2591415;52;20908;-74
2022/09/11 01:41:51;;;;;;;1.35;0.40;;;19.70;66.70;;;;;;2344457;54;20932;-77
2022/09/11 01:44:22;;;;;;;1.00;0.55;;;19.70;66.60;;;;;;2347622;53;20947;-73
2022/09/11 01:46:49;;;;;;;3.10;0.60;;;19.70;66.70;;;;;;2343978;54;20900;-72
2022/09/11 01:49:27;;;;;;;1.83;0.40;;;19.70;66.70;;;;;;2343751;53;20896;-72
2022/09/11 01:51:56;;;;;;;3.28;0.68;;;19.70;66.80;;;;;;2343883;54;21653;-75
2022/09/11 01:54:25;;;;;;;1.08;0.40;;;19.70;66.80;;;;;;2525946;52;20936;-75
2022/09/11 01:57:00;;;;;;;1.10;0.40;;;19.70;66.90;;;;;;2354205;52;20939;-76
2022/09/11 01:59:39;;;;;;;1.27;0.50;;;19.70;66.90;;;;;;2344459;54;20979;-73
2022/09/11 02:02:08;;;;;;;0.60;0.40;;;19.70;66.80;;;;;;2343606;54;21035;-74
2022/09/11 02:04:54;;;;;;;1.80;0.55;;;19.70;66.80;;;;;;2527862;52;20972;-77
2022/09/11 02:07:22;;;;;;;1.70;0.50;;;19.70;66.60;;;;;;2340038;54;20996;-72
2022/09/11 02:10:24;;;;;;;1.83;0.47;;;19.70;66.70;;;;;;2317250;54;1324941;-73
2022/09/11 02:13:02;;;;;;;2.62;0.70;;;19.70;66.50;;;;;;2537478;53;20960;-75
2022/09/11 02:15:32;;;;;;;0.60;0.40;;;19.70;66.60;;;;;;2372224;53;21453;-78
2022/09/11 02:18:02;;;;;;;1.75;0.45;;;19.70;66.60;;;;;;2338579;54;20932;-74
2022/09/11 02:20:28;;;;;;;1.55;0.40;;;19.70;66.70;;;;;;2320456;54;20951;-74
2022/09/11 02:22:55;;;;;;;1.40;0.60;;;19.70;66.80;;;;;;2339250;54;21007;-73
2022/09/11 02:25:21;;;;;;;1.25;0.50;;;19.70;66.80;;;;;;2386896;53;21291;-74
2022/09/11 02:27:48;;;;;;;1.75;0.57;;;19.60;66.70;;;;;;2339382;54;20946;-73
2022/09/11 02:30:14;;;;;;;3.50;0.70;;;19.60;66.60;;;;;;2339882;54;21003;-73
2022/09/11 02:32:41;;;;;;;1.85;0.62;;;19.70;66.70;;;;;;2337500;54;20957;-72
2022/09/11 02:35:08;;;;;;;0.90;0.40;;;19.70;66.80;;;;;;2338868;54;20986;-74
2022/09/11 02:38:16;;;;;;;1.12;0.43;;;19.70;66.80;;;;;;2339206;54;20926;-73
2022/09/11 02:40:54;;;;;;;1.75;0.60;;;19.70;66.60;;;;;;2339577;54;21392;-74
2022/09/11 02:44:45;;;;;;;2.80;0.50;;;19.70;66.70;;;;;;2520054;53;21506;-77
2022/09/11 02:52:13;;;;;;;1.77;0.37;;;19.70;66.70;;;;;;2534836;53;21662;-74
2022/09/11 02:58:34;;;;;;;0.77;0.37;;;19.70;66.40;;;;;;2339289;54;21058;-74
2022/09/11 03:01:01;;;;;;;1.02;0.35;;;19.70;66.30;;;;;;2350553;53;20958;-72
2022/09/11 03:03:53;;;;;;;2.10;0.40;;;19.70;66.30;;;;;;2331692;54;21474;-72
2022/09/11 03:06:21;;;;;;;1.75;0.60;;;19.60;66.20;;;;;;2331590;54;20955;-73
2022/09/11 03:08:48;;;;;;;0.60;0.30;;;19.60;66.30;;;;;;2338731;54;21669;-73
2022/09/11 03:11:16;;;;;;;0.88;0.40;;;19.60;66.30;;;;;;2335959;54;20959;-74
2022/09/11 03:13:42;;;;;;;3.00;0.60;;;19.60;66.40;;;;;;2339370;54;20963;-73
2022/09/11 03:16:11;;;;;;;1.27;0.50;;;19.60;66.40;;;;;;2375991;53;20947;-73
2022/09/11 03:18:37;;;;;;;1.40;0.55;;;19.50;67.10;;;;;;2339031;54;21511;-74
2022/09/11 03:21:03;;;;;;;1.65;0.50;;;19.60;66.50;;;;;;2336711;54;20915;-74
2022/09/11 03:23:32;;;;;;;1.62;0.50;;;19.50;66.50;;;;;;2338920;54;20950;-73
2022/09/11 03:25:58;;;;;;;1.27;0.47;;;19.50;66.50;;;;;;2384429;53;20978;-73
2022/09/11 03:28:29;;;;;;;1.02;0.40;;;19.50;66.50;;;;;;2391440;53;21440;-73
2022/09/11 03:30:56;;;;;;;1.55;0.43;;;19.60;66.50;;;;;;2336703;54;20985;-73
2022/09/11 03:33:25;;;;;;;1.17;0.50;;;19.60;66.50;;;;;;2339520;54;21086;-74
2022/09/11 03:35:51;;;;;;;0.93;0.50;;;19.60;66.60;;;;;;2339303;54;21058;-74
2022/09/11 03:38:18;;;;;;;2.53;0.68;;;19.60;66.70;;;;;;2338959;54;21031;-75
2022/09/11 03:40:44;;;;;;;3.20;0.60;;;19.60;67.40;;;;;;2525728;53;20986;-74
2022/09/11 03:43:11;;;;;;;2.00;0.52;;;19.60;66.70;;;;;;2323157;54;20934;-73
2022/09/11 03:45:38;;;;;;;2.03;0.62;;;19.50;66.60;;;;;;2339474;54;21038;-73
2022/09/11 03:48:05;;;;;;;1.77;0.57;;;19.60;66.70;;;;;;2339330;54;20899;-74
2022/09/11 03:50:31;;;;;;;2.53;0.57;;;19.60;66.70;;;;;;2474850;53;21003;-73
2022/09/11 03:52:57;;;;;;;1.67;0.40;;;19.60;66.70;;;;;;2339225;54;20963;-73
2022/09/11 03:55:25;;;;;;;1.65;0.62;;;19.60;66.60;;;;;;2339580;54;21354;-73
2022/09/11 03:57:52;;;;;;;0.77;0.40;;;19.60;66.50;;;;;;2473652;53;20935;-73
2022/09/11 04:00:31;;;;;;;2.35;0.60;;;19.70;66.50;;;;;;2340000;54;20972;-76
2022/09/11 04:02:57;;;;;;;2.58;0.50;;;19.60;66.30;;;;;;2339616;54;21059;-74
2022/09/11 04:05:24;;;;;;;1.10;0.50;;;19.70;66.50;;;;;;2339458;54;21007;-73
2022/09/11 04:07:51;;;;;;;1.08;0.50;;;19.60;66.40;;;;;;2425144;53;21305;-74
2022/09/11 04:10:18;;;;;;;1.65;0.50;;;19.60;66.40;;;;;;2389966;53;20970;-76
2022/09/11 04:12:48;;;;;;;1.67;0.60;;;19.60;66.40;;;;;;2332265;54;21766;-75
2022/09/11 04:15:17;;;;;;;2.67;0.50;;;19.70;66.60;;;;;;2329611;54;21765;-77
2022/09/11 04:17:47;;;;;;;3.05;0.50;;;19.70;66.60;;;;;;2339251;54;20925;-73
2022/09/11 04:20:14;;;;;;;1.30;0.50;;;19.60;66.50;;;;;;2340600;53;21671;-74
2022/09/11 04:22:40;;;;;;;1.98;0.50;;;19.60;66.50;;;;;;2325762;53;20906;-73
2022/09/11 04:25:09;;;;;;;1.00;0.47;;;19.60;66.50;;;;;;2338762;53;21052;-74
2022/09/11 04:27:36;;;;;;;1.77;0.60;;;19.60;66.40;;;;;;2339628;55;21448;-74
2022/09/11 04:30:02;;;;;;;1.25;0.45;;;19.60;66.40;;;;;;2318585;53;21486;-76
2022/09/11 04:32:28;;;;;;;1.20;0.47;;;19.60;66.50;;;;;;2339589;54;21814;-73
2022/09/11 04:34:55;;;;;;;2.75;0.50;;;19.60;66.60;;;;;;2339465;54;20966;-73
2022/09/11 04:37:21;;;;;;;1.90;0.50;;;19.70;66.70;;;;;;2541136;53;21117;-74
2022/09/11 04:39:47;;;;;;;1.23;0.50;;;19.60;66.60;;;;;;2320932;54;21014;-74
2022/09/11 04:42:14;;;;;;;1.00;0.50;;;19.70;66.80;;;;;;2333737;54;20986;-74
2022/09/11 04:44:40;;;;;;;1.60;0.50;;;19.70;66.70;;;;;;2315950;54;21492;-74
2022/09/11 04:47:07;;;;;;;1.35;0.50;;;19.70;66.70;;;;;;2448086;53;20986;-73
2022/09/11 04:49:34;;;;;;;2.03;0.40;;;19.70;66.70;;;;;;2359670;53;21077;-74
2022/09/11 04:52:04;;;;;;;0.73;0.30;;;19.70;66.70;;;;;;2530496;53;21873;-76
2022/09/11 04:54:32;;;;;;;1.35;0.55;;;19.70;66.70;;;;;;2339454;54;21392;-73
2022/09/11 04:57:00;;;;;;;1.20;0.60;;;19.70;66.60;;;;;;2339326;54;21557;-74
2022/09/11 04:59:26;;;;;;;1.62;0.40;;;19.70;66.60;;;;;;2340965;54;21815;-74
2022/09/11 05:01:54;;;;;;;1.23;0.50;;;19.70;66.60;;;;;;2342562;54;20919;-73
2022/09/11 05:04:20;;;;;;;2.42;0.50;;;19.70;66.60;;;;;;2343980;53;21721;-73
2022/09/11 05:06:52;;;;;;;1.10;0.40;;;19.70;66.50;;;;;;2341048;53;21015;-74
2022/09/11 05:09:18;;;;;;;1.75;0.70;;;19.70;66.50;;;;;;2360737;53;20972;-73
2022/09/11 05:11:45;;;;;;;0.68;0.37;;;19.70;66.50;;;;;;2341839;53;20916;-73
2022/09/11 05:14:11;;;;;;;3.05;1.10;;;19.70;66.50;;;;;;2343603;54;20880;-73
2022/09/11 05:16:40;;;;;;;3.45;0.93;;;19.70;66.50;;;;;;2342838;54;21488;-73
2022/09/11 05:19:07;;;;;;;1.77;0.70;;;19.70;66.50;;;;;;2339260;54;21512;-75
2022/09/11 05:21:34;;;;;;;1.52;0.60;;;19.70;66.60;;;;;;2342258;54;21018;-73
2022/09/11 05:24:00;;;;;;;2.42;0.70;;;19.70;66.60;;;;;;2340806;53;20976;-76
2022/09/11 05:26:28;;;;;;;2.08;0.70;;;19.70;66.50;;;;;;2333032;53;21042;-75
2022/09/11 05:29:11;;;;;;;2.03;0.70;;;19.70;66.60;;;;;;2324911;54;21075;-74
2022/09/11 05:31:37;;;;;;;1.48;0.50;;;19.70;66.60;;;;;;2411266;52;20981;-75
2022/09/11 05:34:03;;;;;;;1.40;0.50;;;19.70;66.60;;;;;;2326078;54;21902;-74
2022/09/11 05:36:32;;;;;;;1.12;0.40;;;19.70;66.70;;;;;;2326298;54;21010;-76
2022/09/11 05:38:59;;;;;;;1.08;0.60;;;19.70;66.60;;;;;;2331100;53;20980;-74
2022/09/11 05:41:25;;;;;;;1.27;0.50;;;19.70;66.70;;;;;;2319574;53;21054;-74
2022/09/11 05:43:51;;;;;;;1.25;0.50;;;19.70;66.80;;;;;;2325085;54;20969;-73
2022/09/11 05:46:18;;;;;;;1.45;0.60;;;19.70;66.80;;;;;;2324919;54;20927;-74
2022/09/11 05:48:44;;;;;;;3.03;0.62;;;19.70;66.80;;;;;;2383402;52;21045;-76
2022/09/11 05:51:12;;;;;;;1.12;0.43;;;19.70;66.70;;;;;;2326229;54;20920;-73
2022/09/11 05:53:39;;;;;;;2.42;0.55;;;19.70;66.70;;;;;;2326378;54;20948;-74
2022/09/11 05:56:11;;;;;;;1.40;0.50;;;19.70;66.70;;;;;;2326087;54;21980;-74
2022/09/11 05:58:37;;;;;;;2.43;0.60;;;19.70;66.70;;;;;;2340256;53;20984;-75
2022/09/11 06:01:08;;;;;;;2.10;0.62;;;19.70;66.80;;;;;;2326226;54;21580;-73
2022/09/11 06:03:35;;;;;;;0.93;0.55;;;19.70;66.80;;;;;;2395624;52;20944;-74
2022/09/11 06:06:02;;;;;;;2.08;0.60;;;19.70;66.80;;;;;;2325875;54;20959;-74
2022/09/11 06:08:29;;;;;;;1.62;0.55;;;19.80;66.90;;;;;;2326657;54;20991;-74
2022/09/11 06:10:57;;;;;;;1.58;0.60;;;19.80;66.90;;;;;;2326892;54;20933;-76
2022/09/11 06:13:30;;;;;;;1.90;0.60;;;19.80;67.00;;;;;;2545433;52;21059;-72
2022/09/11 06:15:57;;;;;;;1.90;0.60;;;19.80;67.10;;;;;;2510253;52;21443;-74
2022/09/11 06:18:23;;;;;;;2.30;0.62;;;19.80;67.10;;;;;;2326299;54;20948;-74
2022/09/11 06:21:00;;;;;;;1.23;0.52;;;19.80;67.10;;;;;;2325597;54;20911;-76
2022/09/11 06:23:27;;;;;;;1.80;0.50;;;19.90;67.10;;;;;;2326870;54;20994;-74
2022/09/11 06:25:53;;;;;;;1.42;0.70;;;19.90;67.10;;;;;;2326111;54;21103;-73
2022/09/11 06:28:21;;;;;;;0.95;0.50;;;19.90;67.20;;;;;;2326593;54;21570;-73
2022/09/11 06:30:51;;;;;;;1.12;0.52;;;19.90;67.30;;;;;;2326678;54;20964;-74
2022/09/11 06:33:20;;;;;;;1.55;0.90;;;19.90;67.30;;;;;;2327144;53;20908;-74
2022/09/11 06:35:59;;;;;;;1.70;0.60;;;19.90;67.30;;;;;;2326649;54;20944;-76
2022/09/11 06:38:25;;;;;;;1.08;0.55;;;20.00;67.40;;;;;;2326561;54;21023;-74
2022/09/11 06:40:52;;;;;;;1.40;0.60;;;20.00;67.30;;;;;;2326834;54;20953;-74
2022/09/11 06:43:18;;;;;;;1.30;0.52;;;20.00;68.10;;;;;;2326642;54;21225;-74
2022/09/11 06:45:48;;;;;;;1.55;0.80;;;20.10;67.50;;;;;;2570454;52;20929;-74
2022/09/11 06:48:33;;;;;;;2.55;0.70;;;20.10;67.50;;;;;;2572094;52;20991;-74
2022/09/11 06:51:02;;;;;;;2.37;0.77;;;20.10;67.40;;;;;;2329092;54;20940;-76
2022/09/11 06:53:29;;;;;;;2.87;0.88;;;20.20;67.50;;;;;;2357528;52;20987;-74
2022/09/11 06:56:05;;;;;;;1.23;0.55;;;20.20;67.50;;;;;;2326599;53;20987;-73
2022/09/11 06:58:31;;;;;;;3.33;0.70;;;20.20;67.50;;;;;;2404758;53;21074;-74
2022/09/11 07:01:10;;;;;;;1.42;0.50;;;20.20;67.50;;;;;;2326710;54;21313;-74
2022/09/11 07:03:40;;;;;;;1.58;0.55;;;20.20;67.50;;;;;;2328383;54;20940;-75
2022/09/11 07:06:06;;;;;;;1.73;0.60;;;20.20;67.50;;;;;;2327687;54;20936;-73
2022/09/11 07:08:32;;;;;;;3.62;0.90;;;20.30;67.50;;;;;;2328320;54;20927;-74
2022/09/11 07:11:03;;;;;;;1.80;0.73;;;20.30;67.40;;;;;;2327069;54;20935;-74
2022/09/11 07:13:31;;;;;;;2.00;0.80;;;20.40;67.50;;;;;;2328188;54;21091;-74
2022/09/11 07:16:00;;;;;;;1.37;0.65;;;20.40;67.40;;;;;;2326873;54;20920;-74
2022/09/11 07:18:32;;;;;;;2.30;0.77;;;20.40;67.40;;;;;;2328618;53;21027;-74
2022/09/11 07:20:58;;;;;;;4.70;1.02;;;20.50;67.40;;;;;;2328482;54;20892;-75
2022/09/11 07:23:25;;;;;;;2.30;0.70;;;20.50;67.50;;;;;;2329261;53;20988;-74
2022/09/11 07:25:52;;;;;;;1.60;0.60;;;20.50;67.60;;;;;;2325523;53;20928;-75
2022/09/11 07:28:18;;;;;;;2.78;0.80;;;20.50;67.60;;;;;;2329317;53;20976;-77
2022/09/11 07:30:45;;;;;;;2.47;0.80;;;20.60;67.70;;;;;;2328550;53;20935;-74
2022/09/11 07:33:11;;;;;;;1.35;0.62;;;20.60;67.60;;;;;;2326872;54;20979;-74
2022/09/11 07:35:37;;;;;;;2.53;1.02;;;20.60;67.50;;;;;;2327615;54;21063;-73
2022/09/11 07:38:04;;;;;;;2.17;0.90;;;20.70;67.50;;;;;;2336396;53;21019;-73
2022/09/11 07:40:30;;;;;;;2.10;0.80;;;20.70;67.30;;;;;;2328888;54;20947;-77
2022/09/11 07:42:56;;;;;;;4.70;1.00;;;20.70;67.10;;;;;;2327296;54;21343;-74
2022/09/11 07:45:22;;;;;;;2.40;0.80;;;20.70;66.90;;;;;;2343175;53;20977;-75
2022/09/11 07:47:49;;;;;;;1.77;0.77;;;20.80;67.00;;;;;;2329278;54;20967;-74
2022/09/11 07:50:16;;;;;;;1.73;0.70;;;20.80;67.00;;;;;;2328232;54;20920;-74
2022/09/11 07:52:43;;;;;;;1.95;0.60;;;20.80;66.90;;;;;;2326402;54;20947;-74
2022/09/11 07:55:09;;;;;;;2.00;0.80;;;20.90;66.90;;;;;;2328906;54;21564;-74
2022/09/11 07:57:36;;;;;;;1.45;0.70;;;20.80;66.80;;;;;;2328958;54;20979;-74
2022/09/11 08:00:05;;;;;;;3.10;0.73;;;20.90;66.80;;;;;;2327859;54;21457;-75
2022/09/11 08:02:31;;;;;;;1.70;0.70;;;20.90;66.80;;;;;;2329833;54;21630;-76
2022/09/11 08:04:59;;;;;;;1.92;0.65;;;20.90;66.80;;;;;;2330777;54;20995;-74
2022/09/11 08:07:25;;;;;;;1.23;0.60;;;20.90;66.80;;;;;;2330068;54;20970;-74
2022/09/11 08:09:53;;;;;;;1.50;0.70;;;20.90;66.80;;;;;;2382945;52;20904;-74
2022/09/11 08:12:31;;;;;;;0.82;0.47;;;21.00;66.80;;;;;;2328771;54;21314;-75
2022/09/11 08:14:57;;;;;;;2.17;0.70;;;21.00;66.80;;;;;;2396340;52;20995;-74
2022/09/11 08:17:24;;;;;;;3.53;0.80;;;21.00;66.80;;;;;;2572962;52;20960;-73
2022/09/11 08:19:50;;;;;;;3.95;0.70;;;21.00;66.70;;;;;;2327226;54;20948;-73
2022/09/11 08:22:17;;;;;;;2.10;0.90;;;21.00;66.50;;;;;;2327728;54;20908;-73
2022/09/11 08:24:43;;;;;;;3.30;1.02;;;21.10;66.50;;;;;;2326914;54;20968;-73
2022/09/11 08:27:09;;;;;;;2.53;0.80;;;21.10;66.50;;;;;;2326954;54;21026;-73
2022/09/11 08:29:35;;;;;;;1.65;0.70;;;21.10;66.50;;;;;;2326897;54;20940;-73
2022/09/11 08:32:02;;;;;;;2.15;0.82;;;21.10;66.40;;;;;;2326613;54;20952;-73
2022/09/11 08:34:29;;;;;;;2.00;0.75;;;21.10;66.50;;;;;;2326803;54;21007;-74
2022/09/11 08:36:55;;;;;;;1.65;0.70;;;21.10;66.40;;;;;;2326863;54;20948;-75
2022/09/11 08:39:21;;;;;;;1.85;0.77;;;21.20;66.40;;;;;;2327128;53;20912;-73
2022/09/11 08:41:48;;;;;;;1.73;0.62;;;21.20;66.40;;;;;;2328323;52;21478;-74
2022/09/11 08:44:21;;;;;;;3.05;0.85;;;21.20;66.40;;;;;;2326966;54;20919;-73
2022/09/11 08:46:52;;;;;;;2.65;0.68;;;21.30;66.50;;;;;;2523623;52;20991;-74
2022/09/11 08:49:37;;;;;;;1.40;0.60;;;21.30;66.50;;;;;;2384300;52;22059;-75
2022/09/11 08:52:04;;;;;;;1.67;0.70;;;21.30;66.40;;;;;;2403544;52;21021;-76
2022/09/11 08:54:36;;;;;;;3.28;0.93;;;21.30;66.60;;;;;;2327248;54;21812;-75
2022/09/11 08:59:01;;;;;;;2.42;0.90;;;21.40;66.60;;;;;;2327251;53;20931;-74
2022/09/11 09:01:45;;;;;;;1.70;0.62;;;21.40;66.30;;;;;;2427332;52;20924;-73
2022/09/11 09:11:13;;;;;;;1.80;0.70;;;21.50;66.50;;;;;;2326991;54;21539;-73
2022/09/11 09:15:12;;;;;;;1.80;0.80;;;21.70;66.20;;;;;;2327415;54;21062;-73
2022/09/11 09:17:59;;;;;;;1.80;0.60;;;21.80;66.10;;;;;;2326352;54;21019;-72
2022/09/11 09:20:28;;;;;;;2.70;1.02;;;21.80;65.70;;;;;;2459660;52;21357;-72
2022/09/11 09:23:09;;;;;;;2.28;0.80;;;21.80;65.60;;;;;;2327018;54;20924;-73
2022/09/11 09:25:37;;;;;;;1.90;0.90;;;21.90;65.40;;;;;;2327254;54;21967;-73
2022/09/11 09:28:07;;;;;;;3.05;0.82;;;21.90;65.60;;;;;;2357745;52;20924;-73
2022/09/11 09:30:41;;;;;;;2.45;1.10;;;21.90;65.40;;;;;;2326746;54;20955;-73
2022/09/11 09:33:29;;;;;;;1.67;0.93;;;21.90;65.30;;;;;;2503481;52;22089;-74
2022/09/11 09:35:56;;;;;;;1.60;0.80;;;22.00;65.30;;;;;;2325871;53;21446;-74
2022/09/11 09:38:26;;;;;;;2.60;1.00;;;22.00;65.50;;;;;;2381640;52;20966;-73
2022/09/11 09:44:34;;;;;;;2.70;1.25;;;22.00;65.50;;;;;;2327491;54;21059;-73
2022/09/11 09:47:00;;;;;;;2.10;1.05;;;22.10;65.00;;;;;;2328477;54;20939;-73
2022/09/11 09:49:33;;;;;;;1.37;0.65;;;22.10;65.30;;;;;;2328008;54;20911;-76
2022/09/11 09:52:04;;;;;;;2.15;1.10;;;22.20;65.30;;;;;;2328250;54;20968;-73
2022/09/11 09:54:32;;;;;;;3.00;1.08;;;22.20;65.40;;;;;;2328701;54;20951;-74
2022/09/11 09:57:04;;;;;;;2.22;1.10;;;22.30;65.40;;;;;;2329172;54;22367;-74
2022/09/11 09:59:41;;;;;;;2.03;0.90;;;22.30;65.00;;;;;;2329579;54;20916;-74
2022/09/11 10:02:07;;;;;;;2.10;1.00;;;22.30;64.80;;;;;;2329327;54;20920;-74
2022/09/11 10:04:33;;;;;;;2.10;1.00;;;22.30;64.90;;;;;;2323984;54;20939;-73
2022/09/11 10:07:09;;;;;;;3.17;1.30;;;22.40;64.90;;;;;;2326296;54;20975;-73
2022/09/11 10:09:43;;;;;;;2.00;0.90;;;22.40;64.70;;;;;;2323512;54;20908;-73
2022/09/11 10:12:16;;;;;;;3.20;1.20;;;22.40;64.80;;;;;;2324038;54;21539;-73
2022/09/11 10:14:50;;;;;;;2.85;1.30;;;22.50;64.80;;;;;;2325428;54;20963;-73
2022/09/11 10:17:21;;;;;;;3.15;1.27;;;22.50;64.30;;;;;;2479071;52;20979;-74
2022/09/11 10:19:49;;;;;;;2.75;1.00;;;22.50;64.90;;;;;;2325683;54;20955;-74
2022/09/11 10:22:29;;;;;;;2.55;1.00;;;22.50;64.30;;;;;;2379749;52;20958;-73
2022/09/11 10:25:28;;;;;;;2.20;1.05;;;22.60;64.20;;;;;;2335002;53;21038;-73
2022/09/11 10:28:13;;;;;;;2.20;1.23;;;22.60;64.00;;;;;;2327532;54;22051;-73
2022/09/11 10:30:41;;;;;;;2.75;1.42;;;22.70;64.10;;;;;;2329232;54;20942;-73
2022/09/11 10:33:28;;;;;;;2.50;1.30;;;22.70;64.20;;;;;;2419154;52;21014;-76
2022/09/11 10:35:54;;;;;;;2.83;1.40;;;22.70;63.40;;;;;;2328250;54;21456;-73
2022/09/11 10:38:45;;;;;;;6.97;3.20;;;22.70;63.90;;;;;;2323962;54;20915;-75
2022/09/11 10:41:18;;;;;;;5.72;2.58;;;22.70;63.30;;;;;;2325838;54;21341;-73
2022/09/11 10:44:20;;;;;;;3.65;2.00;;;22.70;63.60;;;;;;2326471;54;20924;-75
2022/09/11 10:49:22;;;;;;;2.78;1.45;;;22.80;62.60;;;;;;2297936;52;21853;-79
2022/09/11 10:54:36;;;;;;;3.17;1.37;;;22.80;63.60;;;;;;2287524;54;20987;-75
2022/09/11 10:57:23;;;;;;;2.17;1.05;;;22.80;63.20;;;;;;2286273;54;20999;-77
2022/09/11 11:01:03;;;;;;;3.00;1.12;;;22.80;63.00;;;;;;2293358;53;21041;-76
2022/09/11 11:03:29;;;;;;;3.28;1.35;;;22.80;62.80;;;;;;2306667;54;20949;-76
2022/09/11 11:07:49;;;;;;;2.30;1.10;;;22.80;63.50;;;;;;2417695;53;22106;-76
2022/09/11 11:10:39;;;;;;;2.20;1.10;;;22.90;62.80;;;;;;2313113;54;21443;-75
2022/09/11 11:13:50;;;;;;;3.08;1.10;;;23.00;63.00;;;;;;2312000;54;21363;-78
2022/09/11 11:18:10;;;;;;;2.85;1.30;;;23.00;62.50;;;;;;2313140;54;21073;-76
2022/09/11 11:22:18;;;;;;;1.92;0.93;;;23.10;62.60;;;;;;2313407;54;21025;-76
2022/09/11 11:24:53;;;;;;;2.50;1.20;;;23.20;63.00;;;;;;2282163;54;21051;-76
2022/09/11 11:27:58;;;;;;;2.78;1.10;;;23.20;63.10;;;;;;2257084;54;21455;-76
2022/09/11 11:30:40;;;;;;;3.35;1.30;;;23.20;62.40;;;;;;2259546;54;21002;-77
2022/09/11 11:33:20;;;;;;;;;;;23.30;62.90;;;;;;2271592;54;21036;-79
2022/09/11 11:36:25;;;;;;;1.98;1.08;;;23.30;62.60;;;;;;2276140;54;20116;-76
2022/09/11 11:38:59;;;;;;;1.80;0.82;;;23.40;62.80;;;;;;2352312;53;21073;-76
2022/09/11 11:41:34;;;;;;;3.35;1.00;;;23.40;63.30;;;;;;2324042;53;20988;-76
2022/09/11 11:44:01;;;;;;;2.53;1.17;;;23.40;63.10;;;;;;2318013;54;20990;-78
2022/09/11 11:46:37;;;;;;;3.50;1.50;;;23.50;63.20;;;;;;2322674;55;20955;-75
2022/09/11 11:49:21;;;;;;;3.05;1.55;;;23.50;62.80;;;;;;2332092;53;21062;-75
2022/09/11 11:52:04;;;;;;;3.53;1.40;;;23.60;63.10;;;;;;2322841;54;22029;-76
2022/09/11 11:54:40;;;;;;;2.58;1.50;;;23.60;62.90;;;;;;2361235;53;20946;-79
2022/09/11 11:57:12;;;;;;;2.65;1.20;;;23.70;63.20;;;;;;2322744;54;21007;-76
2022/09/11 12:06:27;;;;;;;2.30;1.20;;;23.70;63.20;;;;;;2434610;53;20907;-76
2022/09/11 12:08:54;;;;;;;2.10;1.05;;;23.90;62.50;;;;;;2321515;55;20911;-76
2022/09/11 12:11:27;;;;;;;2.47;1.15;;;23.90;62.90;;;;;;2328305;53;21375;-78
2022/09/11 12:13:54;;;;;;;2.10;1.00;;;23.90;62.20;;;;;;2321074;55;21003;-76
2022/09/11 12:16:27;;;;;;;2.40;1.27;;;23.90;62.40;;;;;;2329778;53;20983;-76
2022/09/11 12:19:18;;;;;;;2.20;1.25;;;23.90;62.20;;;;;;2340361;53;20963;-78
2022/09/11 12:22:46;;;;;;;2.40;1.02;;;23.90;61.50;;;;;;2321696;55;21438;-76
2022/09/11 12:25:48;;;;;;;2.30;1.23;;;24.00;61.30;;;;;;2321161;55;21051;-75
2022/09/11 12:28:24;;;;;;;2.22;1.00;;;24.00;60.90;;;;;;2319960;53;20951;-76
2022/09/11 12:31:23;;;;;;;2.20;1.00;;;24.00;61.20;;;;;;2321053;55;20975;-76
2022/09/11 12:33:50;;;;;;;2.65;1.30;;;24.10;60.60;;;;;;2321248;55;21046;-76
2022/09/11 12:36:35;;;;;;;2.10;1.00;;;24.10;61.20;;;;;;2369374;53;22136;-75
2022/09/11 12:39:22;;;;;;;3.00;1.00;;;24.10;60.80;;;;;;2299541;54;21397;-76
2022/09/11 12:41:49;;;;;;;1.95;0.98;;;24.10;60.60;;;;;;2321508;53;20971;-77
2022/09/11 12:44:31;;;;;;;1.55;0.80;;;24.10;60.70;;;;;;2320212;55;20951;-77
2022/09/11 12:47:09;;;;;;;3.53;0.98;;;24.10;59.80;;;;;;2320988;53;22189;-77
2022/09/11 12:49:36;;;;;;;2.65;1.12;;;24.10;60.00;;;;;;2290620;55;20967;-76
2022/09/11 12:52:02;;;;;;;2.30;1.00;;;24.10;60.40;;;;;;2295402;54;20957;-76
2022/09/11 12:54:32;;;;;;;2.20;1.08;;;24.10;60.70;;;;;;2490223;53;20925;-76
2022/09/11 12:57:00;;;;;;;1.98;1.00;;;24.10;60.60;;;;;;2301837;53;21032;-75
2022/09/11 12:59:41;;;;;;;2.20;1.00;;;24.20;60.80;;;;;;2291807;55;22044;-79
2022/09/11 13:02:35;;;;;;;1.90;0.85;;;24.20;59.90;;;;;;2348485;53;22033;-75
2022/09/11 13:05:26;;;;;;;1.90;0.90;;;24.20;59.50;;;;;;2292623;54;21122;-78
2022/09/11 13:07:55;;;;;;;2.53;1.17;;;24.20;59.70;;;;;;2299426;55;20985;-75
2022/09/11 13:10:32;;;;;;;2.08;1.00;;;24.30;60.20;;;;;;2299224;55;20988;-76
2022/09/11 13:12:59;;;;;;;1.87;0.90;;;24.30;59.70;;;;;;2298941;55;21071;-78
2022/09/11 13:15:35;;;;;;;2.00;1.00;;;24.30;59.90;;;;;;2288912;58;21142;-76
2022/09/11 13:18:26;;;;;;;2.50;0.98;;;24.40;59.30;;;;;;2277429;55;21096;-76
2022/09/11 13:21:36;;;;;;;1.52;0.73;;;24.30;59.20;;;;;;2290623;54;21412;-76
2022/09/11 13:24:11;;;;;;;2.15;0.80;;;24.40;58.70;;;;;;2298719;54;20941;-75
2022/09/11 13:26:40;;;;;;;1.20;0.70;;;24.40;59.40;;;;;;2299820;55;20969;-76
2022/09/11 13:29:10;;;;;;;2.62;1.20;;;24.40;59.10;;;;;;2297980;55;21507;-75
2022/09/11 13:31:36;;;;;;;2.65;0.80;;;24.40;58.90;;;;;;2537760;53;21045;-75
2022/09/11 13:34:11;;;;;;;2.12;1.00;;;24.40;59.20;;;;;;2481077;53;21071;-74
2022/09/11 13:36:37;;;;;;;1.70;0.77;;;24.50;59.40;;;;;;2299863;54;21027;-75
2022/09/11 13:39:13;;;;;;;2.05;0.90;;;24.50;59.50;;;;;;2294363;54;21057;-75
2022/09/11 13:41:43;;;;;;;3.60;1.25;;;24.50;59.40;;;;;;2339872;53;20969;-76
2022/09/11 13:44:11;;;;;;;1.83;0.77;;;24.50;59.50;;;;;;2297500;55;21382;-75
2022/09/11 13:46:48;;;;;;;1.35;0.70;;;24.60;59.30;;;;;;2533680;53;21576;-75
2022/09/11 13:49:34;;;;;;;2.17;1.00;;;24.60;58.50;;;;;;2299505;55;20953;-76
2022/09/11 13:52:03;;;;;;;2.10;0.93;;;24.60;58.20;;;;;;2296492;54;20961;-75
2022/09/11 13:54:31;;;;;;;2.20;0.77;;;24.70;58.70;;;;;;2292289;55;21061;-75
2022/09/11 13:57:17;;;;;;;2.37;1.00;;;24.70;58.60;;;;;;2298398;55;20968;-75
2022/09/11 13:59:45;;;;;;;1.73;0.90;;;24.70;57.90;;;;;;2302438;55;21072;-75
2022/09/11 14:02:39;;;;;;;2.30;1.20;;;24.70;58.50;;;;;;2299005;55;21044;-75
2022/09/11 14:05:30;;;;;;;1.90;0.90;;;24.70;58.30;;;;;;2403028;53;21466;-76